Terminal Aerodrome Forecast
Issued by NWS

Home | Current Version | Previous Version | Text Only | Print | Product List | Glossary Off
Versions: 1 2 3 4 5 6 7 8 9 10 11 12 13 14 15 16 17 18 19 20

000
FTUS43 KMPX 190520
TAFRWF
TAF
KRWF 190520Z 1906/2006 33014G22KT P6SM OVC050
     FM190900 35015G21KT P6SM OVC015
     FM191500 01012G18KT 2SM -SN BR OVC015
     FM200000 02012G18KT 6SM -SN BR OVC007=

USA.gov is the U.S. government's official web portal to all federal, state and local government web resources and services.